sensor_id;sensor_type;location;lat;lon;timestamp;pressure;altitude;pressure_sealevel;temperature;humidity
60715;BME280;46564;53.096;8.246;2023-02-05T05:09:28;103299.06;;;0.31;nan
60715;BME280;46564;53.096;8.246;2023-02-05T05:14:31;103299.69;;;0.29;nan
60715;BME280;46564;53.096;8.246;2023-02-05T05:19:35;103276.63;;;0.22;nan
60715;BME280;46564;53.096;8.246;2023-02-05T05:24:41;103276.63;;;0.22;nan
60715;BME280;46564;53.096;8.246;2023-02-05T05:29:45;103277.97;;;0.18;nan
60715;BME280;46564;53.096;8.246;2023-02-05T05:34:47;103269.81;;;0.22;nan
60715;BME280;46564;53.096;8.246;2023-02-05T05:39:48;103255.56;;;0.26;nan
60715;BME280;46564;53.096;8.246;2023-02-05T05:45:09;103253.00;;;0.26;nan
60715;BME280;46564;53.096;8.246;2023-02-05T05:50:11;103246.03;;;0.25;nan
60715;BME280;46564;53.096;8.246;2023-02-05T05:55:13;103258.00;;;0.24;nan
60715;BME280;46564;53.096;8.246;2023-02-05T06:00:14;103249.34;;;0.24;nan
60715;BME280;46564;53.096;8.246;2023-02-05T06:05:16;103236.47;;;0.24;nan
60715;BME280;46564;53.096;8.246;2023-02-05T06:10:18;103238.13;;;0.23;nan
60715;BME280;46564;53.096;8.246;2023-02-05T06:15:20;103226.78;;;0.21;nan
60715;BME280;46564;53.096;8.246;2023-02-05T06:20:22;103225.25;;;0.23;nan
60715;BME280;46564;53.096;8.246;2023-02-05T06:25:24;103218.72;;;0.27;nan
60715;BME280;46564;53.096;8.246;2023-02-05T06:30:26;103221.59;;;0.30;nan
60715;BME280;46564;53.096;8.246;2023-02-05T06:35:27;103218.84;;;0.37;nan
60715;BME280;46564;53.096;8.246;2023-02-05T06:40:32;103220.69;;;0.38;nan
60715;BME280;46564;53.096;8.246;2023-02-05T06:45:34;103230.84;;;0.37;nan
60715;BME280;46564;53.096;8.246;2023-02-05T06:50:41;103225.25;;;0.41;nan
60715;BME280;46564;53.096;8.246;2023-02-05T06:55:42;103216.44;;;0.39;nan
60715;BME280;46564;53.096;8.246;2023-02-05T07:00:45;103213.25;;;0.41;nan
60715;BME280;46564;53.096;8.246;2023-02-05T07:05:46;103203.25;;;0.44;nan
60715;BME280;46564;53.096;8.246;2023-02-05T07:10:48;103205.22;;;0.29;nan
60715;BME280;46564;53.096;8.246;2023-02-05T07:15:53;103204.94;;;0.26;nan
60715;BME280;46564;53.096;8.246;2023-02-05T07:21:02;103211.91;;;0.27;nan
60715;BME280;46564;53.096;8.246;2023-02-05T07:26:07;103213.09;;;0.31;nan
60715;BME280;46564;53.096;8.246;2023-02-05T07:31:12;103209.16;;;0.34;nan
60715;BME280;46564;53.096;8.246;2023-02-05T07:36:17;103216.13;;;0.35;nan
60715;BME280;46564;53.096;8.246;2023-02-05T07:41:19;103224.47;;;0.42;nan
60715;BME280;46564;53.096;8.246;2023-02-05T07:46:21;103229.91;;;0.45;nan
60715;BME280;46564;53.096;8.246;2023-02-05T07:51:23;103228.56;;;0.48;nan
60715;BME280;46564;53.096;8.246;2023-02-05T07:56:26;103233.22;;;0.52;nan
60715;BME280;46564;53.096;8.246;2023-02-05T08:01:29;103227.31;;;0.53;nan
60715;BME280;46564;53.096;8.246;2023-02-05T08:06:32;103221.72;;;0.58;nan
60715;BME280;46564;53.096;8.246;2023-02-05T08:11:34;103235.19;;;0.64;nan
60715;BME280;46564;53.096;8.246;2023-02-05T08:16:36;103235.19;;;0.64;nan
60715;BME280;46564;53.096;8.246;2023-02-05T08:21:38;103240.19;;;0.71;nan
60715;BME280;46564;53.096;8.246;2023-02-05T08:26:39;103241.97;;;0.72;nan
60715;BME280;46564;53.096;8.246;2023-02-05T08:31:42;103238.81;;;0.75;nan
60715;BME280;46564;53.096;8.246;2023-02-05T08:36:43;103250.81;;;0.74;nan
60715;BME280;46564;53.096;8.246;2023-02-05T08:41:47;103260.81;;;0.80;nan
60715;BME280;46564;53.096;8.246;2023-02-05T08:46:49;103268.19;;;0.94;nan
60715;BME280;46564;53.096;8.246;2023-02-05T08:51:51;103274.19;;;1.12;nan
60715;BME280;46564;53.096;8.246;2023-02-05T08:56:53;103276.28;;;1.25;nan
60715;BME280;46564;53.096;8.246;2023-02-05T09:01:54;103280.44;;;1.42;nan
60715;BME280;46564;53.096;8.246;2023-02-05T09:06:56;103281.81;;;1.47;nan
60715;BME280;46564;53.096;8.246;2023-02-05T09:11:58;103301.91;;;1.60;nan
60715;BME280;46564;53.096;8.246;2023-02-05T09:17:00;103293.72;;;1.64;nan
60715;BME280;46564;53.096;8.246;2023-02-05T09:22:02;103294.22;;;1.79;nan
60715;BME280;46564;53.096;8.246;2023-02-05T09:27:04;103284.75;;;1.88;nan
60715;BME280;46564;53.096;8.246;2023-02-05T09:32:07;103295.22;;;1.90;nan
60715;BME280;46564;53.096;8.246;2023-02-05T09:37:09;103308.38;;;2.02;nan
60715;BME280;46564;53.096;8.246;2023-02-05T09:42:23;103317.44;;;2.07;nan
60715;BME280;46564;53.096;8.246;2023-02-05T09:47:44;103317.44;;;2.07;nan
60715;BME280;46564;53.096;8.246;2023-02-05T09:52:49;103325.28;;;2.55;nan
60715;BME280;46564;53.096;8.246;2023-02-05T09:57:54;103341.56;;;2.54;nan
60715;BME280;46564;53.096;8.246;2023-02-05T10:09:17;103350.03;;;2.43;nan
60715;BME280;46564;53.096;8.246;2023-02-05T10:13:45;103356.47;;;2.38;nan
60715;BME280;46564;53.096;8.246;2023-02-05T10:24:39;103373.94;;;2.59;nan
60715;BME280;46564;53.096;8.246;2023-02-05T10:30:07;103381.75;;;2.70;nan
60715;BME280;46564;53.096;8.246;2023-02-05T10:35:30;103386.78;;;2.68;nan
60715;BME280;46564;53.096;8.246;2023-02-05T10:40:39;103396.03;;;2.75;nan
60715;BME280;46564;53.096;8.246;2023-02-05T10:45:42;103405.41;;;2.83;nan
60715;BME280;46564;53.096;8.246;2023-02-05T10:55:57;103416.28;;;2.89;nan
60715;BME280;46564;53.096;8.246;2023-02-05T11:01:00;103414.53;;;2.98;nan
60715;BME280;46564;53.096;8.246;2023-02-05T11:06:07;103417.66;;;3.05;nan
60715;BME280;46564;53.096;8.246;2023-02-05T11:11:27;103415.09;;;3.05;nan
60715;BME280;46564;53.096;8.246;2023-02-05T11:16:40;103426.22;;;3.04;nan
60715;BME280;46564;53.096;8.246;2023-02-05T11:21:48;103430.47;;;3.03;nan
60715;BME280;46564;53.096;8.246;2023-02-05T11:27:11;103444.75;;;3.08;nan
60715;BME280;46564;53.096;8.246;2023-02-05T11:32:37;103445.59;;;3.17;nan
60715;BME280;46564;53.096;8.246;2023-02-05T11:37:39;103444.44;;;3.24;nan
60715;BME280;46564;53.096;8.246;2023-02-05T11:42:46;103462.13;;;3.39;nan
60715;BME280;46564;53.096;8.246;2023-02-05T11:47:48;103457.72;;;3.38;nan
60715;BME280;46564;53.096;8.246;2023-02-05T11:52:51;103447.91;;;3.44;nan
60715;BME280;46564;53.096;8.246;2023-02-05T11:57:59;103438.38;;;3.53;nan
60715;BME280;46564;53.096;8.246;2023-02-05T12:03:14;103430.25;;;3.69;nan
60715;BME280;46564;53.096;8.246;2023-02-05T12:08:27;103435.09;;;3.85;nan
60715;BME280;46564;53.096;8.246;2023-02-05T12:29:45;103391.91;;;4.78;nan
60715;BME280;46564;53.096;8.246;2023-02-05T12:40:50;103392.34;;;5.05;nan
60715;BME280;46564;53.096;8.246;2023-02-05T13:02:00;103412.50;;;4.97;nan
60715;BME280;46564;53.096;8.246;2023-02-05T13:12:31;103414.63;;;4.81;nan
60715;BME280;46564;53.096;8.246;2023-02-05T13:17:37;103429.81;;;4.76;nan
60715;BME280;46564;53.096;8.246;2023-02-05T13:22:51;103445.78;;;4.70;nan
60715;BME280;46564;53.096;8.246;2023-02-05T13:28:27;103456.31;;;4.72;nan
60715;BME280;46564;53.096;8.246;2023-02-05T13:33:42;103463.56;;;4.66;nan
60715;BME280;46564;53.096;8.246;2023-02-05T13:44:24;103478.09;;;4.64;nan
60715;BME280;46564;53.096;8.246;2023-02-05T13:49:39;103489.91;;;4.70;nan
60715;BME280;46564;53.096;8.246;2023-02-05T13:55:06;103508.72;;;4.78;nan
60715;BME280;46564;53.096;8.246;2023-02-05T14:00:15;103517.16;;;4.75;nan
60715;BME280;46564;53.096;8.246;2023-02-05T14:05:41;103536.38;;;4.77;nan
60715;BME280;46564;53.096;8.246;2023-02-05T14:10:44;103531.69;;;4.73;nan
60715;BME280;46564;53.096;8.246;2023-02-05T14:15:46;103540.53;;;4.75;nan
60715;BME280;46564;53.096;8.246;2023-02-05T14:20:48;103534.44;;;4.75;nan
60715;BME280;46564;53.096;8.246;2023-02-05T14:31:05;103530.41;;;4.78;nan
60715;BME280;46564;53.096;8.246;2023-02-05T14:42:12;103527.41;;;4.84;nan
60715;BME280;46564;53.096;8.246;2023-02-05T14:57:45;103576.38;;;5.00;nan
60715;BME280;46564;53.096;8.246;2023-02-05T15:08:51;103587.13;;;4.94;nan
60715;BME280;46564;53.096;8.246;2023-02-05T15:13:33;103592.72;;;4.89;nan
60715;BME280;46564;53.096;8.246;2023-02-05T15:18:50;103599.22;;;4.84;nan
60715;BME280;46564;53.096;8.246;2023-02-05T15:24:13;103603.75;;;4.86;nan
60715;BME280;46564;53.096;8.246;2023-02-05T15:29:23;103602.72;;;4.84;nan
60715;BME280;46564;53.096;8.246;2023-02-05T15:34:51;103609.59;;;4.84;nan
60715;BME280;46564;53.096;8.246;2023-02-05T15:39:56;103612.69;;;4.80;nan
60715;BME280;46564;53.096;8.246;2023-02-05T15:45:35;103613.34;;;4.77;nan
60715;BME280;46564;53.096;8.246;2023-02-05T15:56:05;103627.13;;;4.76;nan
60715;BME280;46564;53.096;8.246;2023-02-05T16:01:08;103637.50;;;4.76;nan
60715;BME280;46564;53.096;8.246;2023-02-05T16:06:17;103634.47;;;4.71;nan
60715;BME280;46564;53.096;8.246;2023-02-05T16:11:28;103654.84;;;4.67;nan
60715;BME280;46564;53.096;8.246;2023-02-05T16:16:31;103663.44;;;4.66;nan
60715;BME280;46564;53.096;8.246;2023-02-05T16:21:42;103666.66;;;4.63;nan
60715;BME280;46564;53.096;8.246;2023-02-05T16:26:58;103670.28;;;4.55;nan
60715;BME280;46564;53.096;8.246;2023-02-05T16:32:04;103674.78;;;4.47;nan
60715;BME280;46564;53.096;8.246;2023-02-05T16:37:13;103690.16;;;4.35;nan
60715;BME280;46564;53.096;8.246;2023-02-05T16:42:29;103693.22;;;4.21;nan
60715;BME280;46564;53.096;8.246;2023-02-05T16:47:33;103709.63;;;4.11;nan
60715;BME280;46564;53.096;8.246;2023-02-05T16:52:35;103716.44;;;4.00;nan
60715;BME280;46564;53.096;8.246;2023-02-05T16:57:37;103716.50;;;3.92;nan
60715;BME280;46564;53.096;8.246;2023-02-05T17:02:40;103712.94;;;3.81;nan
60715;BME280;46564;53.096;8.246;2023-02-05T17:07:42;103715.47;;;3.70;nan
60715;BME280;46564;53.096;8.246;2023-02-05T17:13:02;103721.50;;;3.61;nan
60715;BME280;46564;53.096;8.246;2023-02-05T17:18:30;103741.50;;;3.53;nan
60715;BME280;46564;53.096;8.246;2023-02-05T17:23:34;103758.47;;;3.41;nan
60715;BME280;46564;53.096;8.246;2023-02-05T17:28:36;103772.69;;;3.35;nan
60715;BME280;46564;53.096;8.246;2023-02-05T17:33:48;103784.91;;;3.28;nan
60715;BME280;46564;53.096;8.246;2023-02-05T17:38:51;103784.81;;;3.17;nan
60715;BME280;46564;53.096;8.246;2023-02-05T17:43:53;103786.66;;;3.10;nan
60715;BME280;46564;53.096;8.246;2023-02-05T17:48:54;103788.38;;;3.00;nan
60715;BME280;46564;53.096;8.246;2023-02-05T17:53:56;103789.31;;;2.92;nan
60715;BME280;46564;53.096;8.246;2023-02-05T17:58:58;103785.06;;;2.84;nan
60715;BME280;46564;53.096;8.246;2023-02-05T18:04:00;103782.66;;;2.77;nan
60715;BME280;46564;53.096;8.246;2023-02-05T18:09:02;103790.88;;;2.73;nan
60715;BME280;46564;53.096;8.246;2023-02-05T18:14:04;103802.31;;;2.66;nan
60715;BME280;46564;53.096;8.246;2023-02-05T18:19:06;103807.78;;;2.60;nan
60715;BME280;46564;53.096;8.246;2023-02-05T18:24:08;103815.56;;;2.52;nan
60715;BME280;46564;53.096;8.246;2023-02-05T18:29:09;103825.31;;;2.45;nan
60715;BME280;46564;53.096;8.246;2023-02-05T18:34:11;103829.72;;;2.38;nan
60715;BME280;46564;53.096;8.246;2023-02-05T18:39:12;103834.13;;;2.30;nan
60715;BME280;46564;53.096;8.246;2023-02-05T18:44:14;103835.34;;;2.25;nan
60715;BME280;46564;53.096;8.246;2023-02-05T18:49:18;103854.22;;;2.24;nan
60715;BME280;46564;53.096;8.246;2023-02-05T18:54:19;103861.53;;;2.19;nan
60715;BME280;46564;53.096;8.246;2023-02-05T18:59:21;103874.72;;;2.14;nan
60715;BME280;46564;53.096;8.246;2023-02-05T19:04:26;103876.84;;;2.09;nan
60715;BME280;46564;53.096;8.246;2023-02-05T19:09:28;103880.94;;;2.07;nan
60715;BME280;46564;53.096;8.246;2023-02-05T19:14:30;103885.94;;;2.05;nan
60715;BME280;46564;53.096;8.246;2023-02-05T19:19:32;103900.69;;;1.98;nan
60715;BME280;46564;53.096;8.246;2023-02-05T19:24:34;103902.34;;;1.88;nan
60715;BME280;46564;53.096;8.246;2023-02-05T19:29:36;103898.81;;;1.79;nan
60715;BME280;46564;53.096;8.246;2023-02-05T19:34:40;103896.34;;;1.72;nan
60715;BME280;46564;53.096;8.246;2023-02-05T19:39:43;103916.72;;;1.69;nan
60715;BME280;46564;53.096;8.246;2023-02-05T19:44:45;103912.56;;;1.62;nan
60715;BME280;46564;53.096;8.246;2023-02-05T19:49:46;103902.69;;;1.58;nan
60715;BME280;46564;53.096;8.246;2023-02-05T19:54:48;103911.50;;;1.60;nan
60715;BME280;46564;53.096;8.246;2023-02-05T19:59:49;103902.69;;;1.58;nan
60715;BME280;46564;53.096;8.246;2023-02-05T20:04:51;103905.69;;;1.54;nan
60715;BME280;46564;53.096;8.246;2023-02-05T20:09:53;103899.75;;;1.46;nan
60715;BME280;46564;53.096;8.246;2023-02-05T20:14:54;103917.75;;;1.37;nan
60715;BME280;46564;53.096;8.246;2023-02-05T20:19:57;103913.03;;;1.33;nan
60715;BME280;46564;53.096;8.246;2023-02-05T20:25:12;103911.47;;;1.27;nan
60715;BME280;46564;53.096;8.246;2023-02-05T20:30:14;103910.03;;;1.13;nan
60715;BME280;46564;53.096;8.246;2023-02-05T20:35:35;103912.66;;;0.97;nan
60715;BME280;46564;53.096;8.246;2023-02-05T20:40:37;103916.75;;;0.79;nan
60715;BME280;46564;53.096;8.246;2023-02-05T20:45:38;103928.75;;;0.62;nan
60715;BME280;46564;53.096;8.246;2023-02-05T20:50:40;103940.09;;;0.56;nan
60715;BME280;46564;53.096;8.246;2023-02-05T20:55:41;103949.63;;;0.57;nan
60715;BME280;46564;53.096;8.246;2023-02-05T21:00:43;103956.63;;;0.58;nan
60715;BME280;46564;53.096;8.246;2023-02-05T21:05:45;103962.13;;;0.61;nan
60715;BME280;46564;53.096;8.246;2023-02-05T21:10:47;103964.78;;;0.53;nan
60715;BME280;46564;53.096;8.246;2023-02-05T21:15:56;103962.94;;;0.52;nan
60715;BME280;46564;53.096;8.246;2023-02-05T21:21:15;103969.19;;;0.55;nan
60715;BME280;46564;53.096;8.246;2023-02-05T21:26:18;103980.81;;;0.51;nan
60715;BME280;46564;53.096;8.246;2023-02-05T21:31:22;103975.44;;;0.41;nan
60715;BME280;46564;53.096;8.246;2023-02-05T21:36:23;103967.28;;;0.29;nan
60715;BME280;46564;53.096;8.246;2023-02-05T21:41:26;103971.81;;;0.15;nan
60715;BME280;46564;53.096;8.246;2023-02-05T21:46:28;103970.47;;;0.03;nan
60715;BME280;46564;53.096;8.246;2023-02-05T21:51:32;103976.28;;;-0.14;nan
60715;BME280;46564;53.096;8.246;2023-02-05T21:56:37;103973.25;;;-0.26;nan
60715;BME280;46564;53.096;8.246;2023-02-05T22:01:40;103976.94;;;-0.24;nan
60715;BME280;46564;53.096;8.246;2023-02-05T22:06:43;103984.88;;;-0.29;nan
60715;BME280;46564;53.096;8.246;2023-02-05T22:11:44;104004.06;;;-0.34;nan
60715;BME280;46564;53.096;8.246;2023-02-05T22:16:46;104020.38;;;-0.27;nan
60715;BME280;46564;53.096;8.246;2023-02-05T22:21:48;104026.41;;;-0.19;nan
60715;BME280;46564;53.096;8.246;2023-02-05T22:26:49;104015.16;;;-0.20;nan
60715;BME280;46564;53.096;8.246;2023-02-05T22:31:51;104021.47;;;-0.25;nan
60715;BME280;46564;53.096;8.246;2023-02-05T22:36:54;104018.19;;;-0.31;nan
60715;BME280;46564;53.096;8.246;2023-02-05T22:41:56;104021.19;;;-0.42;nan
60715;BME280;46564;53.096;8.246;2023-02-05T22:46:57;104013.75;;;-0.55;nan
60715;BME280;46564;53.096;8.246;2023-02-05T22:51:59;104015.47;;;-0.63;nan
60715;BME280;46564;53.096;8.246;2023-02-05T22:57:00;104012.41;;;-0.75;nan
60715;BME280;46564;53.096;8.246;2023-02-05T23:02:02;104018.81;;;-0.78;nan
60715;BME280;46564;53.096;8.246;2023-02-05T23:07:03;104011.53;;;-0.82;nan
60715;BME280;46564;53.096;8.246;2023-02-05T23:12:05;104021.81;;;-0.82;nan
60715;BME280;46564;53.096;8.246;2023-02-05T23:17:07;104030.25;;;-0.83;nan
60715;BME280;46564;53.096;8.246;2023-02-05T23:22:09;104021.66;;;-0.91;nan
60715;BME280;46564;53.096;8.246;2023-02-05T23:27:10;104027.72;;;-0.91;nan
60715;BME280;46564;53.096;8.246;2023-02-05T23:32:12;104025.16;;;-0.91;nan
60715;BME280;46564;53.096;8.246;2023-02-05T23:37:15;104035.81;;;-0.95;nan
60715;BME280;46564;53.096;8.246;2023-02-05T23:42:17;104022.41;;;-0.99;nan
60715;BME280;46564;53.096;8.246;2023-02-05T23:47:18;104014.78;;;-1.14;nan
60715;BME280;46564;53.096;8.246;2023-02-05T23:52:20;104018.50;;;-1.26;nan
60715;BME280;46564;53.096;8.246;2023-02-05T23:57:21;104015.41;;;-1.38;nan
